Terminal Aerodrome Forecast
Issued by NWS

Home | Current Version | Previous Version | Text Only | Print | Product List | Glossary Off
Versions: 1 2 3 4 5 6 7 8 9 10 11 12 13 14

000
FTUS43 KTOP 192300
TAFMHK
TAF
KMHK 192320Z 2000/2024 13005KT P6SM SKC
     FM200500 20005KT P6SM SCT300 WS009/22035KT
     FM201400 20011KT P6SM SCT300
     FM201700 19015G20KT P6SM SCT050=

USA.gov is the U.S. government's official web portal to all federal, state and local government web resources and services.